createdAt,value
2023-02-26T00:01:30.492Z,5.60
2023-02-26T00:04:00.721Z,5.60
2023-02-26T00:06:29.290Z,5.50
2023-02-26T00:08:56.908Z,5.50
2023-02-26T00:11:24.102Z,5.40
2023-02-26T00:13:51.396Z,5.40
2023-02-26T00:16:21.735Z,5.40
2023-02-26T00:18:49.097Z,5.30
2023-02-26T00:21:23.950Z,5.40
2023-02-26T00:23:51.841Z,5.40
2023-02-26T00:26:19.409Z,5.30
2023-02-26T00:28:46.838Z,5.30
2023-02-26T00:31:17.628Z,5.30
2023-02-26T00:33:45.181Z,5.30
2023-02-26T00:36:21.362Z,5.20
2023-02-26T00:38:59.289Z,5.10
2023-02-26T00:41:26.519Z,5.10
2023-02-26T00:43:54.065Z,5.00
2023-02-26T00:46:42.868Z,5.00
2023-02-26T00:49:37.561Z,5.00
2023-02-26T00:52:10.626Z,5.00
2023-02-26T00:54:37.577Z,5.00
2023-02-26T00:57:05.993Z,4.90
2023-02-26T00:59:32.978Z,4.90
2023-02-26T01:02:01.888Z,4.90
2023-02-26T01:04:29.116Z,4.80
2023-02-26T01:06:57.827Z,4.70
2023-02-26T01:09:30.019Z,4.60
2023-02-26T01:12:03.618Z,4.60
2023-02-26T01:14:32.662Z,4.60
2023-02-26T01:17:23.363Z,4.60
2023-02-26T01:20:01.201Z,4.60
2023-02-26T01:22:31.520Z,4.50
2023-02-26T01:25:14.435Z,4.40
2023-02-26T01:27:41.898Z,4.30
2023-02-26T01:30:11.502Z,4.30
2023-02-26T01:33:05.712Z,4.20
2023-02-26T01:35:49.235Z,4.10
2023-02-26T01:38:31.338Z,3.90
2023-02-26T01:41:10.548Z,3.90
2023-02-26T01:43:43.304Z,3.90
2023-02-26T01:46:24.961Z,3.80
2023-02-26T01:48:53.322Z,3.70
2023-02-26T01:51:42.393Z,3.70
2023-02-26T01:54:09.649Z,3.60
2023-02-26T01:56:37.848Z,3.60
2023-02-26T01:59:06.977Z,3.50
2023-02-26T02:01:36.331Z,3.40
2023-02-26T02:04:04.811Z,3.40
2023-02-26T02:06:31.770Z,3.40
2023-02-26T02:08:59.047Z,3.30
2023-02-26T02:11:27.023Z,3.30
2023-02-26T02:14:06.099Z,3.30
2023-02-26T02:17:01.569Z,3.20
2023-02-26T02:19:50.501Z,3.20
2023-02-26T02:22:40.191Z,3.10
2023-02-26T02:25:45.136Z,3.10
2023-02-26T02:28:14.277Z,3.10
2023-02-26T02:31:07.079Z,3.10
2023-02-26T02:33:49.359Z,3.10
2023-02-26T02:36:51.485Z,3.00
2023-02-26T02:39:32.581Z,3.00
2023-02-26T02:42:26.095Z,3.00
2023-02-26T02:45:10.926Z,2.90
2023-02-26T02:47:43.005Z,2.90
2023-02-26T02:50:33.072Z,2.80
2023-02-26T02:53:07.749Z,2.80
2023-02-26T02:55:38.895Z,2.70
2023-02-26T02:58:12.840Z,2.80
2023-02-26T03:00:46.688Z,2.70
2023-02-26T03:03:33.415Z,2.80
2023-02-26T03:06:00.520Z,2.70
2023-02-26T03:08:31.411Z,2.60
2023-02-26T03:10:58.567Z,2.60
2023-02-26T03:13:26.884Z,2.60
2023-02-26T03:16:19.746Z,2.60
2023-02-26T03:19:05.959Z,2.60
2023-02-26T03:21:42.542Z,2.60
2023-02-26T03:24:25.782Z,2.60
2023-02-26T03:27:20.327Z,2.70
2023-02-26T03:29:59.530Z,2.70
2023-02-26T03:32:47.659Z,2.70
2023-02-26T03:35:37.202Z,2.70
2023-02-26T03:38:12.057Z,2.80
2023-02-26T03:40:50.138Z,2.80
2023-02-26T03:43:39.080Z,2.90
2023-02-26T03:46:15.339Z,2.90
2023-02-26T03:48:44.187Z,2.90
2023-02-26T03:51:14.675Z,2.90
2023-02-26T03:53:54.203Z,2.90
2023-02-26T03:56:33.488Z,3.00
2023-02-26T03:59:06.472Z,2.90
2023-02-26T04:02:03.032Z,2.90
2023-02-26T04:04:46.340Z,2.90
2023-02-26T04:07:15.531Z,2.90
2023-02-26T04:09:44.421Z,2.80
2023-02-26T04:12:11.817Z,2.80
2023-02-26T04:14:42.632Z,2.80
2023-02-26T04:17:10.015Z,2.80
2023-02-26T04:19:37.083Z,2.80
2023-02-26T04:22:04.262Z,2.80
2023-02-26T04:24:31.468Z,2.80
2023-02-26T04:27:01.436Z,2.80
2023-02-26T04:29:28.825Z,2.70
2023-02-26T04:31:55.838Z,2.60
2023-02-26T04:34:22.991Z,2.50
2023-02-26T04:36:50.731Z,2.50
2023-02-26T04:39:17.761Z,2.40
2023-02-26T04:41:45.301Z,2.40
2023-02-26T04:44:13.171Z,2.30
2023-02-26T04:46:42.225Z,2.30
2023-02-26T04:49:10.237Z,2.30
2023-02-26T04:51:39.536Z,2.30
2023-02-26T04:54:08.089Z,2.20
2023-02-26T04:56:35.274Z,2.20
2023-02-26T04:59:03.932Z,2.20
2023-02-26T05:01:32.040Z,2.20
2023-02-26T05:04:05.093Z,2.10
2023-02-26T05:06:32.570Z,2.10
2023-02-26T05:08:59.571Z,2.10
2023-02-26T05:11:26.543Z,2.10
2023-02-26T05:13:53.835Z,2.10
2023-02-26T05:16:20.860Z,2.00
2023-02-26T05:18:47.951Z,2.00
2023-02-26T05:21:15.449Z,2.10
2023-02-26T05:23:42.643Z,2.00
2023-02-26T05:26:09.851Z,2.00
2023-02-26T05:28:36.929Z,2.00
2023-02-26T05:31:04.288Z,2.00
2023-02-26T05:33:31.397Z,1.90
2023-02-26T05:35:58.712Z,1.90
2023-02-26T05:38:25.767Z,1.90
2023-02-26T05:40:57.464Z,1.80
2023-02-26T05:43:25.100Z,1.80
2023-02-26T05:45:52.750Z,1.80
2023-02-26T05:48:19.790Z,1.70
2023-02-26T05:50:48.880Z,1.70
2023-02-26T05:53:16.193Z,1.70
2023-02-26T05:55:43.146Z,1.70
2023-02-26T05:58:10.502Z,1.60
2023-02-26T06:00:37.734Z,1.60
2023-02-26T06:03:04.998Z,1.60
2023-02-26T06:05:32.099Z,1.60
2023-02-26T06:07:59.052Z,1.60
2023-02-26T06:10:26.007Z,1.60
2023-02-26T06:12:52.946Z,1.60
2023-02-26T06:15:20.034Z,1.60
2023-02-26T06:17:47.043Z,1.60
2023-02-26T06:20:14.013Z,1.60
2023-02-26T06:22:41.118Z,1.60
2023-02-26T06:25:08.628Z,1.60
2023-02-26T06:27:35.668Z,1.60
2023-02-26T06:30:03.146Z,1.60
2023-02-26T06:32:30.878Z,1.70
2023-02-26T06:34:58.176Z,1.60
2023-02-26T06:37:25.330Z,1.70
2023-02-26T06:39:52.857Z,1.70
2023-02-26T06:42:20.318Z,1.70
2023-02-26T06:44:47.452Z,1.80
2023-02-26T06:47:14.660Z,1.70
2023-02-26T06:49:41.814Z,1.70
2023-02-26T06:52:08.775Z,1.70
2023-02-26T06:54:35.768Z,1.70
2023-02-26T06:57:03.344Z,1.70
2023-02-26T06:59:30.401Z,1.80
2023-02-26T07:01:57.751Z,1.80
2023-02-26T07:04:24.870Z,1.90
2023-02-26T07:06:51.856Z,2.00
2023-02-26T07:09:21.638Z,2.10
2023-02-26T07:11:48.709Z,2.10
2023-02-26T07:14:15.769Z,2.30
2023-02-26T07:16:42.687Z,2.40
2023-02-26T07:19:09.658Z,2.50
2023-02-26T07:21:36.600Z,2.50
2023-02-26T07:24:03.706Z,2.60
2023-02-26T07:26:30.972Z,2.80
2023-02-26T07:28:57.971Z,2.80
2023-02-26T07:31:25.027Z,2.90
2023-02-26T07:33:52.133Z,2.90
2023-02-26T07:36:19.299Z,3.00
2023-02-26T07:38:46.424Z,3.10
2023-02-26T07:41:13.342Z,3.10
2023-02-26T07:43:40.335Z,3.20
2023-02-26T07:46:07.604Z,3.40
2023-02-26T07:48:37.182Z,4.10
2023-02-26T07:51:04.807Z,5.00
2023-02-26T07:53:31.814Z,5.90
2023-02-26T07:55:58.712Z,6.80
2023-02-26T08:01:41.178Z,8.00
2023-02-26T08:04:08.395Z,7.90
2023-02-26T08:06:35.512Z,7.90
2023-02-26T08:09:03.816Z,7.70
2023-02-26T08:11:32.860Z,7.10
2023-02-26T08:14:27.754Z,6.50
2023-02-26T08:43:15.536Z,4.20
2023-02-26T08:45:42.912Z,4.20
2023-02-26T08:48:10.889Z,4.20
2023-02-26T08:50:38.604Z,4.30
2023-02-26T08:53:06.339Z,4.30
2023-02-26T08:55:33.536Z,4.40
2023-02-26T08:58:00.514Z,4.50
2023-02-26T09:00:27.483Z,4.60
2023-02-26T09:02:54.477Z,4.60
2023-02-26T09:05:22.225Z,4.60
2023-02-26T09:07:49.176Z,4.60
2023-02-26T09:10:16.724Z,4.70
2023-02-26T09:12:44.327Z,4.80
2023-02-26T09:15:12.352Z,4.80
2023-02-26T09:17:40.344Z,4.70
2023-02-26T09:20:09.219Z,4.70
2023-02-26T09:22:36.882Z,4.60
2023-02-26T09:25:05.514Z,4.50
2023-02-26T09:27:33.520Z,4.50
2023-02-26T09:30:00.477Z,4.50
2023-02-26T09:32:27.541Z,4.60
2023-02-26T09:34:54.586Z,4.60
2023-02-26T09:37:21.719Z,4.60
2023-02-26T09:39:50.292Z,4.80
2023-02-26T09:42:37.116Z,5.00
2023-02-26T09:45:05.644Z,5.30
2023-02-26T09:47:50.891Z,5.70
2023-02-26T09:50:47.075Z,5.90
2023-02-26T09:53:31.558Z,6.00
2023-02-26T09:56:21.662Z,6.10
2023-02-26T09:58:50.396Z,6.00
2023-02-26T10:01:35.824Z,5.80
2023-02-26T10:04:23.099Z,5.60
2023-02-26T10:07:15.022Z,5.60
2023-02-26T10:09:57.120Z,5.60
2023-02-26T10:12:27.675Z,5.50
2023-02-26T10:14:57.784Z,5.30
2023-02-26T10:17:46.499Z,5.30
2023-02-26T10:20:29.788Z,5.20
2023-02-26T10:22:59.660Z,5.10
2023-02-26T10:25:37.502Z,5.10
2023-02-26T10:28:07.359Z,5.20
2023-02-26T10:30:45.146Z,5.20
2023-02-26T10:33:29.621Z,5.20
2023-02-26T10:36:04.568Z,5.20
2023-02-26T10:38:32.388Z,5.30
2023-02-26T10:41:04.707Z,5.50
2023-02-26T10:43:41.999Z,5.60
2023-02-26T10:46:40.204Z,5.70
2023-02-26T10:49:22.083Z,5.90
2023-02-26T10:51:52.763Z,5.90
2023-02-26T10:54:25.188Z,5.90
2023-02-26T10:56:52.093Z,5.90
2023-02-26T10:59:19.039Z,5.90
2023-02-26T11:01:48.280Z,5.80
2023-02-26T11:04:19.136Z,5.70
2023-02-26T11:06:51.072Z,5.70
2023-02-26T11:09:31.417Z,5.70
2023-02-26T11:12:18.050Z,5.90
2023-02-26T11:14:46.937Z,6.10
2023-02-26T11:17:28.174Z,6.30
2023-02-26T11:20:15.229Z,6.50
2023-02-26T11:22:47.500Z,6.70
2023-02-26T11:25:19.208Z,7.00
2023-02-26T11:27:49.691Z,7.10
2023-02-26T11:30:18.828Z,7.00
2023-02-26T11:32:50.446Z,7.00
2023-02-26T11:35:18.978Z,6.90
2023-02-26T11:38:00.086Z,6.80
2023-02-26T11:44:32.922Z,6.60
2023-02-26T11:47:05.333Z,6.50
2023-02-26T11:49:32.626Z,6.50
2023-02-26T11:52:21.845Z,6.30
2023-02-26T11:54:51.700Z,6.20
2023-02-26T11:57:27.960Z,6.00
2023-02-26T11:59:57.585Z,6.00
2023-02-26T12:02:30.299Z,6.10
2023-02-26T12:05:01.160Z,6.30
2023-02-26T12:07:30.360Z,6.50
2023-02-26T12:09:57.477Z,6.80
2023-02-26T12:12:38.848Z,7.10
2023-02-26T12:15:32.409Z,7.10
2023-02-26T12:18:18.442Z,7.00
2023-02-26T12:21:15.736Z,6.90
2023-02-26T12:24:13.069Z,6.80
2023-02-26T12:27:06.966Z,6.60
2023-02-26T12:30:01.299Z,6.30
2023-02-26T12:32:36.491Z,6.20
2023-02-26T12:35:15.248Z,6.20
2023-02-26T12:37:49.509Z,6.20
2023-02-26T12:40:30.824Z,6.40
2023-02-26T12:43:11.760Z,6.60
2023-02-26T12:45:59.190Z,6.70
2023-02-26T12:48:58.504Z,6.90
2023-02-26T12:51:43.517Z,7.00
2023-02-26T12:54:49.235Z,7.10
2023-02-26T12:57:25.268Z,7.20
2023-02-26T13:00:20.233Z,7.00
2023-02-26T13:02:56.528Z,6.80
2023-02-26T13:05:29.626Z,6.70
2023-02-26T13:08:33.662Z,6.60
2023-02-26T13:11:06.759Z,6.50
2023-02-26T13:13:36.734Z,6.40
2023-02-26T13:16:12.776Z,6.40
2023-02-26T13:19:06.589Z,6.40
2023-02-26T13:21:38.899Z,6.50
2023-02-26T13:24:15.031Z,6.50
2023-02-26T13:26:43.722Z,6.50
2023-02-26T13:29:15.034Z,6.50
2023-02-26T13:31:51.092Z,6.40
2023-02-26T13:34:39.644Z,6.40
2023-02-26T13:37:10.741Z,6.30
2023-02-26T13:40:18.159Z,6.30
2023-02-26T13:42:53.995Z,6.20
2023-02-26T13:45:52.345Z,6.10
2023-02-26T13:48:51.172Z,6.00
2023-02-26T13:51:30.219Z,5.90
2023-02-26T13:54:00.613Z,5.80
2023-02-26T13:56:33.996Z,5.70
2023-02-26T13:59:05.837Z,5.70
2023-02-26T14:01:33.852Z,5.70
2023-02-26T14:04:22.800Z,5.60
2023-02-26T14:06:55.495Z,5.60
2023-02-26T14:09:22.464Z,5.70
2023-02-26T14:11:55.551Z,5.80
2023-02-26T14:14:22.475Z,5.90
2023-02-26T14:16:55.752Z,6.00
2023-02-26T14:19:43.100Z,6.20
2023-02-26T14:22:26.198Z,6.30
2023-02-26T14:24:54.994Z,6.30
2023-02-26T14:27:23.811Z,6.10
2023-02-26T14:30:14.909Z,6.00
2023-02-26T14:33:05.994Z,5.90
2023-02-26T14:35:39.653Z,5.80
2023-02-26T14:38:37.816Z,5.70
2023-02-26T14:41:36.347Z,5.70
2023-02-26T14:44:21.019Z,5.60
2023-02-26T14:46:49.893Z,5.50
2023-02-26T14:49:36.921Z,5.40
2023-02-26T14:52:31.302Z,5.40
2023-02-26T14:55:16.673Z,5.30
2023-02-26T14:58:28.298Z,5.30
2023-02-26T15:01:32.039Z,5.20
2023-02-26T15:04:17.923Z,5.20
2023-02-26T15:07:03.721Z,5.20
2023-02-26T15:09:52.358Z,5.20
2023-02-26T15:12:40.506Z,5.20
2023-02-26T15:15:22.657Z,5.20
2023-02-26T15:18:04.781Z,5.30
2023-02-26T15:21:32.505Z,5.30
2023-02-26T15:24:00.314Z,5.30
2023-02-26T15:26:29.389Z,5.40
2023-02-26T15:28:58.625Z,5.40
2023-02-26T15:31:37.066Z,5.40
2023-02-26T15:34:04.485Z,5.40
2023-02-26T15:36:32.102Z,5.40
2023-02-26T15:39:01.762Z,5.40
2023-02-26T15:41:31.970Z,5.20
2023-02-26T15:44:08.192Z,5.20
2023-02-26T15:46:38.809Z,5.20
2023-02-26T15:49:19.599Z,5.30
2023-02-26T15:51:47.398Z,5.40
2023-02-26T15:54:18.850Z,5.30
2023-02-26T15:56:46.721Z,5.10
2023-02-26T15:59:18.510Z,5.00
2023-02-26T16:01:45.870Z,4.90
2023-02-26T16:04:18.616Z,4.90
2023-02-26T16:06:54.544Z,4.90
2023-02-26T16:09:29.184Z,5.00
2023-02-26T16:11:59.599Z,5.10
2023-02-26T16:14:32.279Z,5.00
2023-02-26T16:17:00.101Z,4.90
2023-02-26T16:19:38.862Z,4.80
2023-02-26T16:22:16.982Z,4.70
2023-02-26T16:24:44.874Z,4.60
2023-02-26T16:27:13.826Z,4.40
2023-02-26T16:29:51.908Z,4.40
2023-02-26T16:32:20.043Z,4.40
2023-02-26T16:34:53.631Z,4.30
2023-02-26T16:37:33.507Z,4.30
2023-02-26T16:40:21.246Z,4.30
2023-02-26T16:42:51.266Z,4.30
2023-02-26T16:45:24.102Z,4.30
2023-02-26T16:47:54.294Z,4.40
2023-02-26T16:50:27.105Z,4.30
2023-02-26T16:53:19.170Z,4.30
2023-02-26T16:55:56.407Z,4.30
2023-02-26T16:58:25.180Z,4.30
2023-02-26T17:01:01.339Z,4.40
2023-02-26T17:03:31.292Z,4.40
2023-02-26T17:06:17.432Z,4.40
2023-02-26T17:08:59.264Z,4.40
2023-02-26T17:11:37.396Z,4.40
2023-02-26T17:14:38.222Z,4.40
2023-02-26T17:17:20.149Z,4.50
2023-02-26T17:20:03.266Z,4.40
2023-02-26T17:22:49.404Z,4.40
2023-02-26T17:25:58.976Z,4.40
2023-02-26T17:28:48.293Z,4.40
2023-02-26T17:31:38.511Z,4.40
2023-02-26T17:34:10.436Z,4.40
2023-02-26T17:36:43.395Z,4.30
2023-02-26T17:39:13.477Z,4.40
2023-02-26T17:41:44.209Z,4.40
2023-02-26T17:51:07.645Z,4.50
2023-02-26T17:53:40.967Z,4.50
2023-02-26T17:56:14.700Z,4.50
2023-02-26T17:58:41.896Z,4.50
2023-02-26T18:01:11.245Z,4.40
2023-02-26T18:03:40.057Z,4.40
2023-02-26T18:06:07.783Z,4.30
2023-02-26T18:08:35.350Z,4.30
2023-02-26T18:11:03.501Z,4.20
2023-02-26T18:13:33.065Z,4.30
2023-02-26T18:16:02.342Z,4.30
2023-02-26T18:18:29.948Z,4.30
2023-02-26T18:20:57.019Z,4.30
2023-02-26T18:23:24.030Z,4.30
2023-02-26T18:25:53.031Z,4.30
2023-02-26T18:28:23.560Z,4.30
2023-02-26T18:30:51.230Z,4.40
2023-02-26T18:33:19.747Z,4.40
2023-02-26T18:35:54.968Z,4.40
2023-02-26T18:38:25.002Z,4.40
2023-02-26T18:40:53.660Z,4.40
2023-02-26T18:43:21.446Z,4.40
2023-02-26T18:45:50.311Z,4.40
2023-02-26T18:48:19.505Z,4.40
2023-02-26T18:50:49.061Z,4.40
2023-02-26T18:53:17.674Z,4.40
2023-02-26T18:55:46.690Z,4.40
2023-02-26T18:58:13.854Z,4.40
2023-02-26T19:00:41.794Z,4.40
2023-02-26T19:03:09.338Z,4.40
2023-02-26T19:05:36.695Z,4.50
2023-02-26T19:08:05.957Z,4.50
2023-02-26T19:10:34.343Z,4.50
2023-02-26T19:13:01.871Z,4.50
2023-02-26T19:15:28.946Z,4.50
2023-02-26T19:17:56.646Z,4.50
2023-02-26T19:20:23.630Z,4.50
2023-02-26T19:22:50.527Z,4.50
2023-02-26T19:25:24.076Z,4.50
2023-02-26T19:27:54.402Z,4.40
2023-02-26T19:30:23.350Z,4.40
2023-02-26T19:32:51.499Z,4.40
2023-02-26T19:35:19.637Z,4.40
2023-02-26T19:37:47.197Z,4.40
2023-02-26T19:40:19.582Z,4.30
2023-02-26T19:42:47.624Z,4.40
2023-02-26T19:45:15.433Z,4.40
2023-02-26T19:47:42.325Z,4.40
2023-02-26T19:50:10.625Z,4.40
2023-02-26T19:52:37.615Z,4.30
2023-02-26T19:55:07.212Z,4.40
2023-02-26T19:57:34.253Z,4.30
2023-02-26T20:00:49.099Z,4.30
2023-02-26T20:42:34.305Z,4.10
2023-02-26T20:45:01.546Z,4.10
2023-02-26T20:47:28.485Z,4.10
2023-02-26T20:49:55.434Z,4.20
2023-02-26T20:52:24.148Z,4.20
2023-02-26T20:54:51.069Z,4.10
2023-02-26T20:57:17.869Z,4.10
2023-02-26T20:59:44.776Z,4.10
2023-02-26T21:02:14.040Z,4.10
2023-02-26T21:04:41.164Z,4.10
2023-02-26T21:07:21.579Z,4.10
2023-02-26T21:09:50.234Z,4.10
2023-02-26T21:16:37.914Z,4.10
2023-02-26T21:19:50.238Z,4.00
2023-02-26T21:22:19.052Z,4.00
2023-02-26T21:24:46.056Z,4.00
2023-02-26T21:31:17.410Z,4.00
2023-02-26T21:33:45.068Z,4.10
2023-02-26T21:36:14.178Z,4.00
2023-02-26T21:38:42.952Z,4.00
2023-02-26T21:41:14.165Z,4.00
2023-02-26T21:43:41.251Z,4.00
2023-02-26T21:46:08.313Z,4.00
2023-02-26T21:48:35.348Z,4.00
2023-02-26T21:51:02.363Z,4.00
2023-02-26T21:53:29.345Z,4.00
2023-02-26T21:55:57.953Z,4.00
2023-02-26T21:58:25.743Z,4.00
2023-02-26T22:00:56.660Z,4.00
2023-02-26T22:03:24.118Z,4.00
2023-02-26T22:05:54.176Z,4.00
2023-02-26T22:08:22.640Z,3.90
2023-02-26T22:10:51.968Z,3.90
2023-02-26T22:13:19.334Z,3.90
2023-02-26T22:19:03.853Z,3.90
2023-02-26T22:21:31.982Z,3.90
2023-02-26T22:24:02.074Z,3.90
2023-02-26T22:26:29.195Z,3.90
2023-02-26T22:28:59.303Z,3.90
2023-02-26T22:31:31.988Z,3.90
2023-02-26T22:34:00.024Z,3.90
2023-02-26T22:36:28.189Z,3.90
2023-02-26T22:38:55.233Z,3.90
2023-02-26T22:41:22.190Z,3.90
2023-02-26T22:43:49.413Z,3.90
2023-02-26T22:46:17.566Z,3.90
2023-02-26T22:48:44.727Z,3.80
2023-02-26T22:51:11.772Z,3.90
2023-02-26T22:53:38.795Z,3.80
2023-02-26T22:56:06.092Z,3.80
2023-02-26T22:58:33.099Z,3.80
2023-02-26T23:01:01.773Z,3.80
2023-02-26T23:03:29.512Z,3.90
2023-02-26T23:05:57.157Z,3.90
2023-02-26T23:08:25.827Z,3.80
2023-02-26T23:19:21.321Z,3.80
2023-02-26T23:21:48.563Z,3.70
2023-02-26T23:24:15.649Z,3.70
2023-02-26T23:26:42.789Z,3.70
2023-02-26T23:29:10.133Z,3.70
2023-02-26T23:31:37.307Z,3.70
2023-02-26T23:34:07.548Z,3.70
2023-02-26T23:36:34.638Z,3.70
2023-02-26T23:42:50.284Z,3.70
2023-02-26T23:45:17.389Z,3.70
2023-02-26T23:47:44.427Z,3.70
2023-02-26T23:50:12.173Z,3.60
2023-02-26T23:55:29.614Z,3.60
2023-02-26T23:57:56.572Z,3.60
